Time;durP1;ratioP1;P1;durP2;ratioP2;P2;SDS_P1;SDS_P2;PMS_P1;PMS_P2;Temp;Humidity;BMP_temperature;BMP_pressure;BME280_temperature;BME280_humidity;BME280_pressure;Samples;Min_cycle;Max_cycle;Signal;HPM_P1;HPM_P2
2023/10/17 00:00:38;;;;;;;9.60;3.33;;;;;;;-146.27;76.70;83426.88;5027299;28;20095;-67
2023/10/17 00:03:05;;;;;;;9.45;3.42;;;;;;;-146.27;79.68;83473.09;5022984;28;20026;-68
2023/10/17 00:05:31;;;;;;;5.80;3.00;;;;;;;-146.27;80.64;83515.31;5020428;28;20029;-67
2023/10/17 00:07:58;;;;;;;7.72;3.45;;;;;;;-146.27;80.80;83501.22;5027066;28;20028;-67
2023/10/17 00:10:24;;;;;;;8.25;3.80;;;;;;;-146.27;80.68;83501.22;5025090;28;20068;-66
2023/10/17 00:12:52;;;;;;;5.90;3.33;;;;;;;-146.27;81.11;83545.44;5025957;28;20065;-67
2023/10/17 00:15:28;;;;;;;8.40;3.53;;;;;;;-146.27;80.84;83511.28;5023086;28;20535;-67
2023/10/17 00:18:02;;;;;;;7.10;3.63;;;;;;;-146.27;80.85;83527.34;5022542;28;20030;-67
2023/10/17 00:20:32;;;;;;;11.70;3.28;;;;;;;-146.27;81.08;83543.44;5022598;28;20382;-66
2023/10/17 00:22:58;;;;;;;10.35;3.30;;;;;;;-146.27;81.45;83559.50;5022331;28;20481;-67
2023/10/17 00:25:26;;;;;;;11.45;3.25;;;;;;;-146.27;80.94;83525.34;5019891;28;20052;-66
2023/10/17 00:27:51;;;;;;;9.32;3.50;;;;;;;-146.27;81.43;83529.38;5020994;28;20056;-68
2023/10/17 00:30:17;;;;;;;11.02;3.67;;;;;;;-146.27;81.45;83573.56;5017275;28;20595;-67
2023/10/17 00:32:44;;;;;;;12.25;3.45;;;;;;;-146.27;80.93;83521.34;5021952;28;20029;-67
2023/10/17 00:35:13;;;;;;;9.30;3.60;;;;;;;-146.27;81.16;83517.31;5021541;28;20053;-66
2023/10/17 00:37:39;;;;;;;7.20;3.20;;;;;;;-146.27;81.03;83569.56;5019496;28;20034;-66
2023/10/17 00:40:26;;;;;;;11.48;3.42;;;;;;;-146.27;81.44;83551.47;5015016;28;20025;-66
2023/10/17 00:42:51;;;;;;;11.43;3.17;;;;;;;-146.27;81.31;83567.53;5019713;28;20041;-66
2023/10/17 00:45:17;;;;;;;9.30;3.35;;;;;;;-146.27;81.38;83495.22;5020730;28;20029;-66
2023/10/17 00:47:45;;;;;;;7.50;3.20;;;;;;;-146.27;81.75;83537.41;5016693;28;20367;-67
2023/10/17 00:50:12;;;;;;;6.75;2.97;;;;;;;-146.27;81.48;83545.44;5015140;28;20026;-67
2023/10/17 00:52:38;;;;;;;6.75;3.40;;;;;;;-146.27;82.33;83537.41;5028794;28;20036;-66
2023/10/17 00:55:04;;;;;;;10.80;3.60;;;;;;;-146.27;81.69;83553.47;5027970;28;20667;-67
2023/10/17 00:57:36;;;;;;;9.95;3.30;;;;;;;-146.27;81.87;83543.44;5019854;28;20098;-70
2023/10/17 01:03:01;;;;;;;10.77;4.03;;;;;;;-146.27;82.44;83513.28;5026540;28;20029;-67
2023/10/17 01:05:27;;;;;;;11.02;4.18;;;;;;;-146.27;81.46;83533.38;5024583;28;20509;-67
2023/10/17 01:07:53;;;;;;;8.00;3.42;;;;;;;-146.27;81.19;83573.56;5017423;28;20116;-67
2023/10/17 01:10:18;;;;;;;8.65;3.25;;;;;;;-146.27;81.73;83559.50;5023170;28;20032;-67
2023/10/17 01:13:00;;;;;;;8.50;3.88;;;;;;;-146.27;81.74;83529.38;5020953;28;20033;-66
2023/10/17 01:15:28;;;;;;;5.85;3.20;;;;;;;-146.27;81.67;83521.34;5021080;28;20111;-67
2023/10/17 01:17:55;;;;;;;7.78;3.85;;;;;;;-146.27;81.46;83521.34;5029411;28;20116;-68
2023/10/17 01:20:23;;;;;;;6.65;3.10;;;;;;;-146.27;80.94;83535.41;5025199;28;20041;-66
2023/10/17 01:22:48;;;;;;;10.38;3.13;;;;;;;-146.27;80.88;83553.47;5022150;28;20030;-66
2023/10/17 01:25:27;;;;;;;8.15;3.00;;;;;;;-146.27;80.76;83551.47;5015545;28;20392;-66
2023/10/17 01:27:54;;;;;;;9.52;3.47;;;;;;;-146.27;80.63;83541.41;5026760;28;20025;-66
2023/10/17 01:30:23;;;;;;;8.07;3.30;;;;;;;-146.27;80.71;83541.41;5024076;28;20029;-66
2023/10/17 01:32:50;;;;;;;6.55;3.78;;;;;;;-146.27;80.94;83565.53;5014066;28;20029;-68
2023/10/17 01:35:22;;;;;;;7.28;3.38;;;;;;;-146.27;81.05;83545.44;5024463;28;21536;-67
2023/10/17 01:37:47;;;;;;;11.15;3.65;;;;;;;-146.27;81.39;83537.41;5029106;28;20116;-66
2023/10/17 01:40:34;;;;;;;5.63;3.20;;;;;;;-146.27;81.13;83589.66;5019047;28;20113;-66
2023/10/17 01:42:59;;;;;;;10.93;3.63;;;;;;;-146.27;81.16;83573.56;5011495;28;20040;-66
2023/10/17 01:45:26;;;;;;;7.03;3.10;;;;;;;-146.27;80.50;83537.41;5026262;28;20025;-67
2023/10/17 01:47:53;;;;;;;7.55;3.22;;;;;;;-146.27;80.86;83575.59;5020317;28;20022;-67
2023/10/17 01:50:24;;;;;;;7.13;3.05;;;;;;;-146.27;80.94;83585.63;5026530;28;20060;-67
2023/10/17 01:52:52;;;;;;;8.55;3.30;;;;;;;-146.27;80.94;83567.53;5026876;28;20041;-67
2023/10/17 01:55:24;;;;;;;13.43;3.53;;;;;;;-146.27;81.26;83569.56;5021128;28;20432;-65
2023/10/17 01:57:53;;;;;;;12.45;3.00;;;;;;;-146.27;81.46;83563.53;5027084;28;20053;-67
2023/10/17 02:03:03;;;;;;;4.97;2.65;;;;;;;-146.27;81.19;83585.63;5016006;28;20057;-67
2023/10/17 02:05:29;;;;;;;11.50;3.50;;;;;;;-146.27;81.87;83577.59;5022662;28;20101;-67
2023/10/17 02:07:55;;;;;;;8.40;3.08;;;;;;;-146.27;80.96;83579.59;5024343;28;20136;-66
2023/10/17 02:10:28;;;;;;;8.30;3.00;;;;;;;-146.27;80.95;83557.50;5027171;28;20057;-67
2023/10/17 02:12:54;;;;;;;5.72;2.72;;;;;;;-146.27;80.97;83573.56;5016815;28;20425;-67
2023/10/17 02:15:20;;;;;;;14.52;2.80;;;;;;;-146.27;80.69;83569.56;5020613;28;20042;-66
2023/10/17 02:17:47;;;;;;;11.25;2.65;;;;;;;-146.27;81.11;83549.47;5011681;28;20041;-67
2023/10/17 02:20:29;;;;;;;7.82;2.42;;;;;;;-146.27;81.04;83567.53;5017521;28;20048;-67
2023/10/17 02:22:59;;;;;;;3.15;2.35;;;;;;;-146.27;80.66;83571.56;5019554;28;20025;-67
2023/10/17 02:25:32;;;;;;;8.75;2.92;;;;;;;-146.27;80.92;83623.81;5020832;28;20033;-67
2023/10/17 02:27:58;;;;;;;7.07;2.72;;;;;;;-146.27;81.05;83609.75;5020953;28;20024;-67
2023/10/17 02:30:24;;;;;;;10.18;3.05;;;;;;;-146.27;81.00;83593.66;5029483;28;20101;-67
2023/10/17 02:32:53;;;;;;;4.93;3.08;;;;;;;-146.27;81.13;83615.78;5020448;28;20038;-67
2023/10/17 02:38:05;;;;;;;3.53;2.22;;;;;;;-146.27;81.13;83569.56;5031380;28;20099;-67
2023/10/17 02:40:34;;;;;;;6.40;3.10;;;;;;;-146.27;80.84;83629.84;5019062;28;20029;-67
2023/10/17 02:43:00;;;;;;;7.15;2.47;;;;;;;-146.27;80.80;83593.66;5024395;28;20029;-67
2023/10/17 02:45:25;;;;;;;5.30;2.92;;;;;;;-146.27;80.52;83625.81;5031652;28;20117;-67
2023/10/17 02:47:53;;;;;;;6.57;2.65;;;;;;;-146.27;80.10;83621.81;5029350;28;20056;-66
2023/10/17 02:53:14;;;;;;;12.05;3.17;;;;;;;-146.27;79.56;83587.63;5016483;28;20041;-65
2023/10/17 02:55:39;;;;;;;3.38;2.17;;;;;;;-146.27;80.44;83603.72;5013161;28;20025;-67
2023/10/17 02:58:04;;;;;;;9.43;3.60;;;;;;;-146.27;80.02;83605.72;5027343;28;20029;-67
2023/10/17 03:00:44;;;;;;;7.97;2.60;;;;;;;-146.27;80.87;83597.69;5021299;28;20044;-68
2023/10/17 03:03:12;;;;;;;9.95;2.78;;;;;;;-146.27;80.88;83561.53;5023347;28;20034;-67
2023/10/17 03:05:53;;;;;;;6.00;2.63;;;;;;;-146.27;80.23;83609.75;5020964;28;20095;-67
2023/10/17 03:08:18;;;;;;;3.65;2.50;;;;;;;-146.27;81.07;83591.66;5028744;28;20068;-66
2023/10/17 03:10:45;;;;;;;9.27;2.63;;;;;;;-146.27;80.95;83595.69;5021976;28;20041;-67
2023/10/17 03:13:23;;;;;;;10.20;2.70;;;;;;;-146.27;80.40;83611.75;5021947;28;20032;-66
2023/10/17 03:16:00;;;;;;;9.75;2.97;;;;;;;-146.27;80.35;83637.88;5027132;28;20048;-67
2023/10/17 03:18:25;;;;;;;7.78;2.92;;;;;;;-146.27;80.42;83605.72;5022459;28;20058;-69
2023/10/17 03:20:51;;;;;;;8.98;2.72;;;;;;;-146.27;80.21;83613.75;5026986;28;20115;-69
2023/10/17 03:23:28;;;;;;;8.85;3.22;;;;;;;-146.27;81.06;83589.66;5018309;28;20544;-70
2023/10/17 03:26:00;;;;;;;6.85;2.90;;;;;;;-146.27;81.49;83573.56;5017444;28;20104;-69
2023/10/17 03:28:27;;;;;;;5.40;2.80;;;;;;;-146.27;81.42;83621.81;5030282;28;20030;-69
2023/10/17 03:30:53;;;;;;;7.05;3.13;;;;;;;-146.27;81.65;83629.84;5025518;28;20026;-69
2023/10/17 03:33:28;;;;;;;5.50;2.53;;;;;;;-146.27;80.83;83635.88;5025612;28;20113;-69
2023/10/17 03:38:27;;;;;;;6.43;3.00;;;;;;;-146.27;81.16;83609.75;5017925;28;20057;-70
2023/10/17 03:40:54;;;;;;;5.05;2.80;;;;;;;-146.27;81.84;83621.81;5017132;28;20030;-69
2023/10/17 03:43:28;;;;;;;8.27;2.85;;;;;;;-146.27;81.14;83607.72;5022150;28;20393;-70
2023/10/17 03:45:56;;;;;;;8.02;3.15;;;;;;;-146.27;81.20;83615.78;5013773;28;20104;-69
2023/10/17 03:48:23;;;;;;;12.10;3.70;;;;;;;-146.27;81.74;83627.81;5027558;28;20039;-69
2023/10/17 03:50:59;;;;;;;7.75;2.60;;;;;;;-146.27;81.91;83670.03;5023997;28;20059;-70
2023/10/17 03:53:28;;;;;;;9.32;3.10;;;;;;;-146.27;82.02;83581.59;5015577;28;20042;-69
2023/10/17 03:55:54;;;;;;;7.22;3.65;;;;;;;-146.27;81.92;83597.69;5020005;28;20497;-68
2023/10/17 04:00:53;;;;;;;8.93;3.20;;;;;;;-146.27;82.14;83603.72;5018839;28;20030;-70
2023/10/17 04:03:21;;;;;;;7.20;3.10;;;;;;;-146.27;81.65;83619.78;5026674;28;20029;-69
2023/10/17 04:05:51;;;;;;;9.15;3.13;;;;;;;-146.27;81.84;83609.75;5026478;28;20068;-70
2023/10/17 04:08:26;;;;;;;11.80;3.22;;;;;;;-146.27;81.67;83611.75;5014614;28;20022;-70
2023/10/17 04:11:08;;;;;;;7.40;2.78;;;;;;;-146.27;82.31;83615.78;5012006;28;20029;-70
2023/10/17 04:13:35;;;;;;;7.35;2.88;;;;;;;-146.27;81.93;83629.84;5022887;28;20028;-69
2023/10/17 04:16:14;;;;;;;6.78;2.92;;;;;;;-146.27;82.14;83641.91;5026513;28;20046;-70
2023/10/17 04:18:40;;;;;;;6.53;2.88;;;;;;;-146.27;82.23;83653.94;5026181;28;20028;-70
2023/10/17 04:21:17;;;;;;;7.05;2.50;;;;;;;-146.27;82.19;83619.78;5025385;28;20521;-70
2023/10/17 04:23:44;;;;;;;6.22;3.28;;;;;;;-146.27;82.28;83666.00;5029924;28;20291;-69
2023/10/17 04:26:17;;;;;;;6.35;3.05;;;;;;;-146.27;82.19;83674.03;5024621;28;20025;-70
2023/10/17 04:28:49;;;;;;;8.48;2.88;;;;;;;-146.27;82.33;83678.06;5026264;28;20021;-67
2023/10/17 04:31:23;;;;;;;4.22;2.40;;;;;;;-146.27;82.06;83657.97;5018570;28;20033;-68
2023/10/17 04:33:49;;;;;;;10.88;3.22;;;;;;;-146.27;82.20;83659.97;5018178;28;20028;-67
2023/10/17 04:36:15;;;;;;;7.30;2.92;;;;;;;-146.27;81.82;83672.03;5011736;28;20033;-68
2023/10/17 04:38:44;;;;;;;11.65;2.90;;;;;;;-146.27;81.59;83621.81;5015927;28;20028;-67
2023/10/17 04:43:45;;;;;;;6.40;2.58;;;;;;;-146.27;81.08;83629.84;5016985;28;20041;-66
2023/10/17 04:46:10;;;;;;;8.05;2.97;;;;;;;-146.27;81.76;83666.00;5024498;28;20029;-68
2023/10/17 04:48:39;;;;;;;6.63;2.90;;;;;;;-146.27;81.70;83583.63;5022584;28;20536;-67
2023/10/17 04:53:48;;;;;;;8.30;3.15;;;;;;;-146.27;81.24;83647.91;5019728;28;20029;-65
2023/10/17 04:56:18;;;;;;;5.85;3.28;;;;;;;-146.27;81.33;83633.84;5023224;28;20033;-65
2023/10/17 05:04:02;;;;;;;5.55;2.97;;;;;;;-146.27;81.54;83672.03;5019486;28;20109;-67
2023/10/17 06:17:42;;;;;;;;;;;;;;;-146.27;82.52;83746.38;5019333;28;20307;-70
2023/10/17 06:20:16;;;;;;;6.72;3.05;;;;;;;-146.27;82.36;83774.53;5020987;28;19921;-69
2023/10/17 06:30:48;;;;;;;7.25;3.17;;;;;;;-146.27;82.37;83744.38;5024413;28;20040;-68
2023/10/17 06:33:21;;;;;;;7.38;3.40;;;;;;;-146.27;82.85;83794.63;5028842;28;20025;-68
2023/10/17 06:35:52;;;;;;;6.63;3.75;;;;;;;-146.27;83.17;83810.69;5027699;28;20108;-71
2023/10/17 06:38:19;;;;;;;7.60;3.17;;;;;;;-146.27;83.09;83794.63;5031201;28;20103;-70
2023/10/17 06:40:45;;;;;;;6.85;3.08;;;;;;;-146.27;83.29;83770.50;5026750;28;20054;-71
2023/10/17 06:43:27;;;;;;;7.30;3.50;;;;;;;-146.27;83.20;83776.53;5031355;28;20033;-71
2023/10/17 06:45:55;;;;;;;13.70;4.00;;;;;;;-146.27;83.25;83782.56;5016917;28;20392;-70
2023/10/17 06:48:31;;;;;;;9.23;3.65;;;;;;;-146.27;82.97;83798.63;5024275;28;20026;-67
2023/10/17 06:53:48;;;;;;;8.35;3.60;;;;;;;-146.27;82.40;83810.69;5014206;28;20033;-66
2023/10/17 06:56:16;;;;;;;7.32;3.50;;;;;;;-146.27;82.52;83770.50;5013117;28;20036;-67
2023/10/17 06:58:42;;;;;;;7.57;3.75;;;;;;;-146.27;83.15;83788.59;5025432;28;20031;-67
2023/10/17 07:01:19;;;;;;;9.55;3.80;;;;;;;-146.27;82.44;83746.38;5022736;28;20042;-67
2023/10/17 07:03:46;;;;;;;6.13;3.75;;;;;;;-146.27;82.51;83806.66;5014597;28;20025;-67
2023/10/17 07:06:11;;;;;;;8.93;3.58;;;;;;;-146.27;82.65;83790.59;5031020;28;20097;-67
2023/10/17 07:08:37;;;;;;;5.78;3.25;;;;;;;-146.27;82.75;83794.63;5030689;28;20432;-68
2023/10/17 07:11:05;;;;;;;6.97;3.45;;;;;;;-146.27;82.65;83782.56;5032677;28;20029;-68
2023/10/17 07:13:49;;;;;;;10.30;3.58;;;;;;;-146.27;82.08;83718.25;5020305;28;20375;-67
2023/10/17 07:16:25;;;;;;;;;;;;;;;-146.27;82.16;83738.34;5028097;28;20057;-68
2023/10/17 07:18:53;;;;;;;7.72;3.40;;;;;;;-146.27;82.25;83730.31;5031299;28;19913;-69
2023/10/17 07:21:25;;;;;;;5.95;3.30;;;;;;;-146.27;82.08;83746.38;5026636;28;20036;-69
2023/10/17 07:23:54;;;;;;;20.83;3.70;;;;;;;-146.27;82.11;83732.31;5021131;28;20112;-69
2023/10/17 07:28:56;;;;;;;5.40;3.38;;;;;;;-146.27;81.71;83734.31;5021918;28;20050;-70
2023/10/17 07:31:22;;;;;;;8.20;3.72;;;;;;;-146.27;81.81;83720.25;5025338;28;20025;-70
2023/10/17 07:34:16;;;;;;;5.80;3.40;;;;;;;-146.27;81.43;83706.19;5032277;28;20037;-69
2023/10/17 07:36:43;;;;;;;6.25;3.10;;;;;;;-146.27;80.91;83682.09;5031764;28;20025;-69
2023/10/17 07:39:54;;;;;;;8.60;3.13;;;;;;;-146.27;80.83;83684.09;5030217;28;20752;-70
2023/10/17 07:42:01;;;;;;;7.70;3.47;;;;;;;-146.27;80.78;83694.13;5023967;28;20041;-69
2023/10/17 07:44:27;;;;;;;5.78;3.30;;;;;;;-146.27;80.45;83750.41;5022490;28;20519;-69
2023/10/17 07:49:37;;;;;;;8.90;3.97;;;;;;;-146.27;80.51;83718.25;5023152;28;20069;-69
2023/10/17 07:52:12;;;;;;;7.93;2.95;;;;;;;-146.27;80.26;83674.03;5018174;28;20040;-69
2023/10/17 07:57:28;;;;;;;8.13;4.35;;;;;;;-146.27;80.60;83617.78;5036174;28;20038;-69
2023/10/17 07:59:57;;;;;;;9.13;4.50;;;;;;;-146.27;80.27;83641.91;5030197;28;20087;-73
2023/10/17 08:02:23;;;;;;;9.80;4.70;;;;;;;-146.27;80.25;83631.84;5021820;28;20170;-73
2023/10/17 08:04:50;;;;;;;8.07;4.40;;;;;;;-146.27;80.34;83649.94;5029365;28;20030;-73
2023/10/17 08:07:20;;;;;;;11.80;4.93;;;;;;;-146.27;80.13;83595.69;5030866;28;20021;-73
2023/10/17 08:09:51;;;;;;;11.13;6.05;;;;;;;-146.27;80.25;83603.72;5031461;28;20028;-73
2023/10/17 08:12:22;;;;;;;11.98;5.32;;;;;;;-146.27;80.09;83581.59;5018051;28;20666;-73
2023/10/17 08:14:57;;;;;;;9.85;5.13;;;;;;;-146.27;79.64;83541.41;5018346;28;20057;-69
2023/10/17 08:17:34;;;;;;;11.35;6.03;;;;;;;-146.27;79.85;83553.47;5011295;28;20029;-71
2023/10/17 08:20:38;;;;;;;9.82;5.60;;;;;;;-146.27;79.91;83505.25;5027733;28;20033;-71
2023/10/17 08:23:06;;;;;;;10.43;5.68;;;;;;;-146.27;79.30;83517.31;5029883;28;20493;-71
2023/10/17 08:25:32;;;;;;;12.27;6.72;;;;;;;-146.27;79.22;83485.16;5018994;28;20025;-70
2023/10/17 08:27:58;;;;;;;14.65;6.78;;;;;;;-146.27;79.93;83519.31;5046318;28;20036;-69
2023/10/17 08:30:25;;;;;;;13.40;7.10;;;;;;;-146.27;79.49;83495.22;5038570;28;20154;-71
2023/10/17 08:35:36;;;;;;;12.65;7.25;;;;;;;-146.27;78.81;83455.03;5050848;28;20033;-71
2023/10/17 08:38:03;;;;;;;15.40;6.63;;;;;;;-146.27;79.22;83446.97;5023733;28;20021;-71
2023/10/17 08:40:29;;;;;;;13.27;7.47;;;;;;;-146.27;78.69;83442.97;5028638;28;20590;-71
2023/10/17 08:42:56;;;;;;;14.10;7.70;;;;;;;-146.27;78.43;83422.88;5019293;28;20030;-71
2023/10/17 08:45:26;;;;;;;14.15;7.30;;;;;;;-146.27;78.27;83424.88;5033211;28;20035;-71
2023/10/17 08:47:57;;;;;;;15.70;8.13;;;;;;;-146.27;78.11;83388.72;5022191;28;20108;-70
2023/10/17 08:50:24;;;;;;;12.35;8.27;;;;;;;-146.27;77.38;83344.50;5036443;28;20727;-71
2023/10/17 08:52:51;;;;;;;18.05;9.23;;;;;;;-146.27;77.33;83356.56;5040944;28;20040;-71
2023/10/17 08:55:17;;;;;;;15.60;8.27;;;;;;;-146.27;77.17;83284.22;5021563;28;20125;-71
2023/10/17 08:57:42;;;;;;;17.38;9.18;;;;;;;-146.27;76.47;83308.34;5023751;28;20494;-71
2023/10/17 09:02:35;;;;;;;16.15;9.85;;;;;;;-146.27;75.67;83207.88;5034588;28;20108;-71
2023/10/17 09:05:18;;;;;;;20.20;10.02;;;;;;;-146.27;74.55;83171.72;5040691;28;20036;-71
2023/10/17 09:07:47;;;;;;;19.77;9.00;;;;;;;-146.27;73.29;83051.16;5024082;28;20025;-69
2023/10/17 09:10:37;;;;;;;16.75;9.30;;;;;;;-146.27;69.80;82916.56;5036336;28;20504;-68
2023/10/17 09:15:59;;;;;;;16.45;8.43;;;;;;;-146.27;68.66;83039.09;5038789;28;20048;-69
2023/10/17 09:18:28;;;;;;;16.08;7.82;;;;;;;-146.27;66.32;82826.16;5039124;28;20029;-69
2023/10/17 09:20:57;;;;;;;18.95;7.82;;;;;;;-146.27;63.85;82729.72;5015786;28;20108;-69
2023/10/17 09:23:24;;;;;;;15.10;7.82;;;;;;;-146.27;67.23;82970.81;5027823;28;20029;-68
2023/10/17 09:25:58;;;;;;;16.98;7.60;;;;;;;-146.27;64.42;82745.78;5025784;28;20041;-69
2023/10/17 09:28:25;;;;;;;15.52;7.82;;;;;;;-146.27;63.33;82707.63;5010249;28;20390;-69
2023/10/17 09:31:12;;;;;;;12.57;6.65;;;;;;;-146.27;61.57;82597.13;5024665;28;20029;-68
2023/10/17 09:33:45;;;;;;;16.92;7.75;;;;;;;-146.27;62.28;82757.84;5016246;28;20033;-69
2023/10/17 09:36:13;;;;;;;10.93;5.88;;;;;;;-146.27;60.68;82663.41;5011441;28;20029;-69
2023/10/17 09:38:45;;;;;;;11.68;6.30;;;;;;;-146.27;59.67;82609.19;5011555;28;20030;-70
2023/10/17 09:41:17;;;;;;;11.57;7.03;;;;;;;-146.27;59.89;82593.09;5014567;28;20034;-70
2023/10/17 09:43:47;;;;;;;16.33;6.22;;;;;;;-146.27;59.14;82567.00;5029645;28;20048;-70
2023/10/17 09:46:13;;;;;;;11.88;5.75;;;;;;;-146.27;62.27;82729.72;5016276;28;20033;-69
2023/10/17 09:48:46;;;;;;;17.77;6.38;;;;;;;-146.27;64.11;82767.88;5045306;28;20477;-69
2023/10/17 09:51:35;;;;;;;10.15;6.18;;;;;;;-146.27;64.27;82808.06;5031476;28;20401;-70
2023/10/17 09:54:04;;;;;;;13.73;5.55;;;;;;;-146.27;60.92;82400.25;5038692;28;20032;-69
2023/10/17 09:56:43;;;;;;;7.72;4.90;;;;;;;-146.27;56.08;82414.31;5041523;28;20439;-69
2023/10/17 09:59:20;;;;;;;11.50;5.35;;;;;;;-146.27;56.23;82344.00;5029641;28;20405;-71
2023/10/17 10:01:49;;;;;;;12.43;5.07;;;;;;;-146.27;52.76;82267.69;5040437;28;20523;-70
2023/10/17 10:04:19;;;;;;;8.85;4.97;;;;;;;-146.27;51.48;82273.72;5037964;28;20033;-70
2023/10/17 10:06:45;;;;;;;10.23;5.57;;;;;;;-146.27;56.51;82472.56;5025268;28;20033;-70
2023/10/17 10:09:13;;;;;;;10.77;5.10;;;;;;;-146.27;53.71;82263.66;5029138;28;20033;-70
2023/10/17 10:11:47;;;;;;;14.80;5.45;;;;;;;-146.27;52.87;82177.28;5031711;28;20652;-69
2023/10/17 10:14:13;;;;;;;6.05;4.57;;;;;;;-146.27;52.56;82279.72;5021057;28;20056;-70
2023/10/17 10:16:53;;;;;;;11.05;4.60;;;;;;;-146.27;53.02;82215.44;5029116;28;20176;-70
2023/10/17 10:19:21;;;;;;;9.73;4.63;;;;;;;-146.27;52.45;82078.84;5029819;28;20037;-70
2023/10/17 10:22:00;;;;;;;9.48;4.03;;;;;;;-146.27;50.99;81948.31;5034827;28;20617;-71
2023/10/17 10:24:32;;;;;;;11.80;4.03;;;;;;;-146.27;52.05;82070.81;5028743;28;20040;-69
2023/10/17 10:27:10;;;;;;;8.20;4.20;;;;;;;-146.27;56.51;82327.94;5033844;28;20032;-69
2023/10/17 10:29:37;;;;;;;11.38;4.22;;;;;;;-146.27;55.25;82366.09;5036652;28;20037;-72
2023/10/17 10:32:06;;;;;;;9.15;3.80;;;;;;;-146.27;55.82;82348.03;5027544;28;20022;-71
2023/10/17 10:34:36;;;;;;;7.35;3.90;;;;;;;-146.27;53.94;82273.72;5036393;28;20097;-69
2023/10/17 10:37:07;;;;;;;6.57;3.80;;;;;;;-146.27;52.27;82376.16;5041425;28;20028;-68
2023/10/17 10:39:33;;;;;;;4.53;3.20;;;;;;;-146.27;54.61;82289.78;5033475;28;20481;-70
2023/10/17 10:42:00;;;;;;;5.28;2.95;;;;;;;-146.27;52.58;82267.69;5026749;28;20043;-69
2023/10/17 10:44:28;;;;;;;6.15;3.17;;;;;;;-146.27;53.68;82277.72;5027279;28;20030;-69
2023/10/17 10:46:54;;;;;;;7.03;2.80;;;;;;;-146.27;53.57;82219.47;5023745;28;20394;-69
2023/10/17 10:49:27;;;;;;;6.60;3.22;;;;;;;-146.27;47.79;82070.81;5041468;28;20028;-71
2023/10/17 10:51:53;;;;;;;7.10;2.73;;;;;;;-146.27;48.55;82171.25;5030876;28;20026;-71
2023/10/17 10:54:19;;;;;;;6.28;2.53;;;;;;;-146.27;48.87;82113.00;5041338;28;20036;-71
2023/10/17 10:56:51;;;;;;;6.60;3.00;;;;;;;-146.27;48.65;82185.31;5035790;28;20033;-71
2023/10/17 10:59:21;;;;;;;5.07;2.50;;;;;;;-146.27;48.29;82191.34;5039524;28;20033;-71
2023/10/17 11:01:49;;;;;;;5.55;2.35;;;;;;;-146.27;46.53;82143.13;5036089;28;20048;-71
2023/10/17 11:04:15;;;;;;;3.83;2.03;;;;;;;-146.27;47.26;82084.88;5042904;28;20448;-71
2023/10/17 11:06:41;;;;;;;6.32;2.38;;;;;;;-146.27;47.79;82111.00;5051870;28;20167;-70
2023/10/17 11:09:16;;;;;;;7.47;2.03;;;;;;;-146.27;45.87;81984.47;5032310;28;20037;-70
2023/10/17 11:11:50;;;;;;;6.75;2.10;;;;;;;-146.27;45.45;81948.31;5034733;28;20409;-71
2023/10/17 11:14:19;;;;;;;2.88;1.90;;;;;;;-146.27;44.76;81861.94;5036568;28;20411;-71
2023/10/17 11:16:51;;;;;;;5.65;2.22;;;;;;;-146.27;42.75;81725.34;5045127;28;20514;-70
2023/10/17 11:19:21;;;;;;;7.93;2.10;;;;;;;-146.27;42.13;81757.50;5032242;28;20040;-70
2023/10/17 11:21:55;;;;;;;7.55;2.20;;;;;;;-146.27;42.50;81763.50;5047666;28;20028;-70
2023/10/17 11:24:23;;;;;;;4.90;1.77;;;;;;;-146.27;42.58;81775.56;5034993;28;20398;-73
2023/10/17 11:26:51;;;;;;;4.57;2.08;;;;;;;-146.27;42.74;81821.75;5023864;28;20406;-73
2023/10/17 11:29:17;;;;;;;5.18;2.22;;;;;;;-146.27;41.98;81693.22;5038966;28;20029;-73
2023/10/17 11:31:43;;;;;;;3.47;2.40;;;;;;;-146.27;41.02;81598.81;5029405;28;20037;-73
2023/10/17 11:34:12;;;;;;;4.82;1.92;;;;;;;-146.27;40.65;81596.81;5038384;28;20021;-73
2023/10/17 11:36:50;;;;;;;10.52;2.15;;;;;;;-146.27;40.65;81636.97;5033482;28;20433;-72
2023/10/17 11:39:15;;;;;;;4.05;2.33;;;;;;;-146.27;40.40;81464.25;5032319;28;20040;-73
2023/10/17 11:41:54;;;;;;;4.50;2.00;;;;;;;-146.27;39.59;81331.72;5041660;28;20021;-72
2023/10/17 11:44:23;;;;;;;5.63;2.15;;;;;;;-146.27;39.53;81311.63;5016544;28;20029;-74
2023/10/17 11:46:58;;;;;;;11.27;2.15;;;;;;;-146.27;39.17;81209.22;5028111;28;20117;-73
2023/10/17 11:49:26;;;;;;;3.88;2.05;;;;;;;-146.27;38.53;81199.16;5018893;28;20029;-73
2023/10/17 11:52:09;;;;;;;4.18;2.08;;;;;;;-146.27;38.18;81243.34;5033673;28;20059;-73
2023/10/17 11:54:55;;;;;;;4.43;1.97;;;;;;;-146.27;38.58;81416.06;5026432;28;20083;-72
2023/10/17 11:57:25;;;;;;;3.85;1.90;;;;;;;-146.27;40.35;81436.16;5029439;28;20292;-73
2023/10/17 12:00:06;;;;;;;7.57;1.67;;;;;;;-146.27;39.24;81436.16;5022641;28;20071;-73
2023/10/17 12:02:32;;;;;;;5.80;2.42;;;;;;;-146.27;38.60;81412.03;5036597;28;20043;-73
2023/10/17 12:05:00;;;;;;;8.70;2.42;;;;;;;-146.27;39.48;81460.25;5042358;28;20028;-73
2023/10/17 12:07:25;;;;;;;5.03;2.00;;;;;;;-146.27;39.23;81235.31;5034540;28;20049;-73
2023/10/17 12:09:53;;;;;;;3.65;2.03;;;;;;;-146.27;38.07;81203.19;5047184;28;20112;-74
2023/10/17 12:12:19;;;;;;;3.47;2.00;;;;;;;-146.27;38.20;81299.59;5029811;28;20029;-73
2023/10/17 12:14:44;;;;;;;5.38;2.58;;;;;;;-146.27;37.44;81291.53;5020527;28;20035;-74
2023/10/17 12:17:13;;;;;;;6.65;2.47;;;;;;;-146.27;38.13;81287.53;5039157;28;20082;-74
2023/10/17 12:19:40;;;;;;;6.95;2.70;;;;;;;-146.27;38.79;81466.28;5032351;28;20051;-73
2023/10/17 12:22:05;;;;;;;6.80;2.88;;;;;;;-146.27;38.88;81299.59;5036403;28;20025;-74
2023/10/17 12:24:37;;;;;;;8.98;2.47;;;;;;;-146.27;37.94;81285.53;5034622;28;20029;-74
2023/10/17 12:27:06;;;;;;;6.38;3.03;;;;;;;-146.27;37.11;80829.69;5044353;28;20489;-73
2023/10/17 12:29:34;;;;;;;8.77;2.70;;;;;;;-146.27;37.86;81142.94;5033865;28;20030;-74
2023/10/17 12:32:01;;;;;;;5.60;2.20;;;;;;;-146.27;38.27;81122.84;5036547;28;20036;-76
2023/10/17 12:34:29;;;;;;;6.60;2.53;;;;;;;-146.27;38.33;81042.53;5041710;28;20052;-75
2023/10/17 12:36:54;;;;;;;3.88;2.40;;;;;;;-146.27;37.80;80948.16;5035826;28;20115;-74
2023/10/17 12:39:21;;;;;;;6.00;2.22;;;;;;;-146.27;36.25;81000.34;5028303;28;20428;-73
2023/10/17 12:41:48;;;;;;;5.35;2.55;;;;;;;-146.27;34.76;80476.28;5046584;28;20111;-74
2023/10/17 12:44:20;;;;;;;6.07;2.53;;;;;;;-146.27;35.75;80359.81;5037331;28;20052;-74
2023/10/17 12:46:46;;;;;;;4.85;2.45;;;;;;;-146.27;35.16;80584.69;5038599;28;20039;-73
2023/10/17 12:49:12;;;;;;;5.15;1.98;;;;;;;-146.27;35.17;80773.44;5045332;28;20108;-74
2023/10/17 12:51:38;;;;;;;3.92;2.10;;;;;;;-146.27;36.53;80962.22;5033733;28;20992;-75
2023/10/17 12:54:06;;;;;;;3.83;1.80;;;;;;;-146.27;37.97;81624.94;5044616;28;20025;-74
2023/10/17 12:56:31;;;;;;;7.72;2.05;;;;;;;-146.27;39.78;81741.41;5034837;28;20389;-74
2023/10/17 12:58:56;;;;;;;3.38;1.73;;;;;;;-146.27;40.02;81753.47;5020830;28;20018;-74
2023/10/17 13:01:24;;;;;;;3.25;2.13;;;;;;;-146.27;40.28;81779.59;5028720;28;20037;-74
2023/10/17 13:03:53;;;;;;;5.32;2.42;;;;;;;-146.27;41.10;81813.72;5045542;28;20462;-74
2023/10/17 13:06:20;;;;;;;4.88;2.20;;;;;;;-146.27;44.67;81942.28;5035630;28;20473;-73
2023/10/17 13:08:46;;;;;;;3.78;2.03;;;;;;;-146.27;44.24;81986.47;5035250;28;20024;-74
2023/10/17 13:11:11;;;;;;;4.60;2.47;;;;;;;-146.27;43.97;81918.16;5039182;28;20026;-73
2023/10/17 13:13:39;;;;;;;4.28;2.22;;;;;;;-146.27;44.65;82022.63;5027114;28;20042;-73
2023/10/17 13:16:05;;;;;;;6.93;2.33;;;;;;;-146.27;44.77;82002.53;5023591;28;20462;-73
2023/10/17 13:18:33;;;;;;;3.83;2.30;;;;;;;-146.27;44.37;82074.84;5027843;28;20566;-74
2023/10/17 13:21:06;;;;;;;6.03;2.30;;;;;;;-146.27;45.87;82119.03;5024541;28;20575;-73
2023/10/17 13:23:32;;;;;;;5.82;2.40;;;;;;;-146.27;44.31;82179.28;5021123;28;20527;-73
2023/10/17 13:25:58;;;;;;;6.22;2.00;;;;;;;-146.27;45.17;82175.28;5024979;28;20081;-73
2023/10/17 13:28:24;;;;;;;2.83;1.88;;;;;;;-146.27;44.52;82217.47;5035469;28;20504;-73
2023/10/17 13:30:50;;;;;;;3.15;1.50;;;;;;;-146.27;43.40;82207.41;5040010;28;20029;-73